SVR0301 URSS-LROP
Flight info
| Callsign | SVR0301 |
|---|---|
| Flight time | 1h 55m |
| Altitude | 36000 |
| Route | LAMET G487 ODIRA/N0452F360 UW96 SIN UW90 INB UL746 ODERO T86 MATEL T746 ARGES DCT OSTAL |
| Aircraft | A320/M-SDE3FGHIRWY/LB1 |
Departure
| Time | 2026-05-01 09:34 |
|---|---|
| Airport | Sochi International Airport (URSS) |
Arrival
| Time | 2026-05-01 11:30 |
|---|---|
| Airport | Bucharest Henri Coandă International Airport (LROP) |
| Time | Latitude | Longitude | Altitude | Speed | Heading |
|---|---|---|---|---|---|
| 2026-05-01 09:09 | 43.44747 | 39.94184 | 102 ft | 0 kts | 335° |
| 2026-05-01 09:22 | 43.44714 | 39.94206 | 65 ft | 4 kts | 333° |
| 2026-05-01 09:23 | 43.44690 | 39.94222 | 64 ft | 4 kts | 334° |
| 2026-05-01 09:23 | 43.44642 | 39.94242 | 66 ft | 4 kts | 29° |
| 2026-05-01 09:24 | 43.44636 | 39.94236 | 67 ft | 0 kts | 65° |
| 2026-05-01 09:29 | 43.44636 | 39.94239 | 67 ft | 2 kts | 65° |
| 2026-05-01 09:29 | 43.44650 | 39.94278 | 66 ft | 7 kts | 65° |
| 2026-05-01 09:30 | 43.44720 | 39.94485 | 73 ft | 15 kts | 65° |
| 2026-05-01 09:30 | 43.44761 | 39.94605 | 69 ft | 13 kts | 65° |
| 2026-05-01 09:30 | 43.44829 | 39.94804 | 72 ft | 10 kts | 65° |
| 2026-05-01 09:31 | 43.44856 | 39.94883 | 73 ft | 8 kts | 65° |
| 2026-05-01 09:31 | 43.44873 | 39.94934 | 73 ft | 4 kts | 65° |
| 2026-05-01 09:31 | 43.44912 | 39.95046 | 81 ft | 10 kts | 64° |
| 2026-05-01 09:32 | 43.44948 | 39.95144 | 83 ft | 13 kts | 63° |
| 2026-05-01 09:32 | 43.45039 | 39.95404 | 92 ft | 16 kts | 64° |
| 2026-05-01 09:32 | 43.45035 | 39.95531 | 91 ft | 15 kts | 142° |
| 2026-05-01 09:33 | 43.44948 | 39.95511 | 91 ft | 11 kts | 241° |
| 2026-05-01 09:33 | 43.44943 | 39.95499 | 91 ft | 0 kts | 243° |
| 2026-05-01 09:33 | 43.44721 | 39.94847 | 73 ft | 105 kts | 245° |
| 2026-05-01 09:34 | 43.44478 | 39.94132 | 70 ft | 143 kts | 245° |
| 2026-05-01 09:34 | 43.44014 | 39.92760 | 436 ft | 159 kts | 246° |
| 2026-05-01 09:34 | 43.43268 | 39.89242 | 1781 ft | 185 kts | 258° |
| 2026-05-01 09:35 | 43.43073 | 39.88023 | 1999 ft | 201 kts | 258° |
| 2026-05-01 09:35 | 43.42402 | 39.83887 | 2799 ft | 245 kts | 256° |
| 2026-05-01 09:35 | 43.42007 | 39.81520 | 3449 ft | 260 kts | 255° |
| 2026-05-01 09:36 | 43.41599 | 39.79095 | 4290 ft | 267 kts | 253° |
| 2026-05-01 09:36 | 43.41169 | 39.76573 | 5153 ft | 274 kts | 252° |
| 2026-05-01 09:36 | 43.40729 | 39.74005 | 6059 ft | 278 kts | 251° |
| 2026-05-01 09:36 | 43.40281 | 39.71407 | 7020 ft | 280 kts | 251° |
| 2026-05-01 09:37 | 43.39836 | 39.68818 | 8066 ft | 276 kts | 252° |
| 2026-05-01 09:37 | 43.38965 | 39.63725 | 10118 ft | 272 kts | 252° |
| 2026-05-01 09:37 | 43.38635 | 39.61044 | 10519 ft | 297 kts | 259° |
| 2026-05-01 09:38 | 43.38216 | 39.55028 | 11377 ft | 328 kts | 261° |
| 2026-05-01 09:38 | 43.38010 | 39.51889 | 12152 ft | 331 kts | 261° |
| 2026-05-01 09:38 | 43.37803 | 39.48729 | 13004 ft | 332 kts | 261° |
| 2026-05-01 09:39 | 43.37373 | 39.42385 | 14522 ft | 335 kts | 261° |
| 2026-05-01 09:39 | 43.37146 | 39.39183 | 15204 ft | 338 kts | 261° |
| 2026-05-01 09:39 | 43.36916 | 39.35950 | 15864 ft | 341 kts | 261° |
| 2026-05-01 09:40 | 43.36684 | 39.32694 | 16527 ft | 344 kts | 261° |
| 2026-05-01 09:40 | 43.36212 | 39.26085 | 17816 ft | 351 kts | 261° |
| 2026-05-01 09:40 | 43.35972 | 39.22734 | 18446 ft | 353 kts | 261° |
| 2026-05-01 09:41 | 43.35733 | 39.19408 | 19045 ft | 355 kts | 261° |
| 2026-05-01 09:41 | 43.35240 | 39.12604 | 20224 ft | 360 kts | 261° |
| 2026-05-01 09:41 | 43.34899 | 39.09199 | 20796 ft | 360 kts | 255° |
| 2026-05-01 09:42 | 43.34165 | 39.05911 | 21354 ft | 361 kts | 247° |
| 2026-05-01 09:42 | 43.33257 | 39.02686 | 21909 ft | 363 kts | 247° |
| 2026-05-01 09:42 | 43.31422 | 38.96181 | 22977 ft | 368 kts | 247° |
| 2026-05-01 09:43 | 43.29566 | 38.89578 | 23951 ft | 373 kts | 248° |
| 2026-05-01 09:43 | 43.28628 | 38.86245 | 24372 ft | 376 kts | 248° |
| 2026-05-01 09:43 | 43.27679 | 38.82880 | 24794 ft | 378 kts | 247° |
| 2026-05-01 09:44 | 43.25763 | 38.76107 | 25613 ft | 383 kts | 247° |
| 2026-05-01 09:44 | 43.24790 | 38.72703 | 26013 ft | 384 kts | 247° |
| 2026-05-01 09:44 | 43.23807 | 38.69286 | 26388 ft | 386 kts | 247° |
| 2026-05-01 09:45 | 43.22826 | 38.65888 | 26760 ft | 388 kts | 247° |
| 2026-05-01 09:45 | 43.20825 | 38.58977 | 27492 ft | 391 kts | 247° |
| 2026-05-01 09:45 | 43.19820 | 38.55503 | 27830 ft | 393 kts | 247° |
| 2026-05-01 09:46 | 43.18811 | 38.52018 | 28162 ft | 395 kts | 247° |
| 2026-05-01 09:46 | 43.17793 | 38.48512 | 28459 ft | 397 kts | 247° |
| 2026-05-01 09:46 | 43.16769 | 38.44994 | 28770 ft | 399 kts | 247° |
| 2026-05-01 09:46 | 43.15738 | 38.41457 | 29066 ft | 400 kts | 247° |
| 2026-05-01 09:47 | 43.14701 | 38.37904 | 29355 ft | 402 kts | 247° |
| 2026-05-01 09:47 | 43.13662 | 38.34342 | 29634 ft | 403 kts | 247° |
| 2026-05-01 09:47 | 43.12619 | 38.30768 | 29925 ft | 405 kts | 247° |
| 2026-05-01 09:47 | 43.11572 | 38.27184 | 30208 ft | 405 kts | 247° |
| 2026-05-01 09:48 | 43.10520 | 38.23600 | 30540 ft | 404 kts | 246° |
| 2026-05-01 09:48 | 43.09483 | 38.20080 | 30867 ft | 403 kts | 246° |
| 2026-05-01 09:48 | 43.08424 | 38.16484 | 31195 ft | 402 kts | 246° |
| 2026-05-01 09:48 | 43.07399 | 38.12985 | 31507 ft | 401 kts | 246° |
| 2026-05-01 09:49 | 43.06372 | 38.09454 | 31822 ft | 399 kts | 246° |
| 2026-05-01 09:49 | 43.05352 | 38.05924 | 32139 ft | 398 kts | 246° |
| 2026-05-01 09:49 | 43.04335 | 38.02403 | 32448 ft | 397 kts | 246° |
| 2026-05-01 09:49 | 43.03318 | 37.98893 | 32769 ft | 397 kts | 246° |
| 2026-05-01 09:50 | 43.02298 | 37.95391 | 33079 ft | 396 kts | 246° |
| 2026-05-01 09:50 | 43.01271 | 37.91903 | 33391 ft | 395 kts | 246° |
| 2026-05-01 09:50 | 43.00242 | 37.88429 | 33714 ft | 393 kts | 245° |
| 2026-05-01 09:50 | 42.99217 | 37.84973 | 34023 ft | 392 kts | 245° |
| 2026-05-01 09:51 | 42.98194 | 37.81518 | 34277 ft | 392 kts | 245° |
| 2026-05-01 09:51 | 42.97168 | 37.78064 | 34526 ft | 393 kts | 245° |
| 2026-05-01 09:51 | 42.96136 | 37.74606 | 34751 ft | 393 kts | 245° |
| 2026-05-01 09:51 | 42.95117 | 37.71196 | 34975 ft | 393 kts | 245° |
| 2026-05-01 09:52 | 42.94068 | 37.67697 | 35206 ft | 393 kts | 246° |
| 2026-05-01 09:52 | 42.93043 | 37.64285 | 35411 ft | 394 kts | 246° |
| 2026-05-01 09:52 | 42.92002 | 37.60829 | 35634 ft | 394 kts | 246° |
| 2026-05-01 09:52 | 42.90964 | 37.57370 | 35836 ft | 394 kts | 246° |
| 2026-05-01 09:53 | 42.89923 | 37.53908 | 35994 ft | 395 kts | 246° |
| 2026-05-01 09:53 | 42.88876 | 37.50435 | 36026 ft | 396 kts | 246° |
| 2026-05-01 09:53 | 42.86776 | 37.43472 | 36027 ft | 397 kts | 246° |
| 2026-05-01 09:54 | 42.84670 | 37.36528 | 36035 ft | 397 kts | 245° |
| 2026-05-01 09:54 | 42.82559 | 37.29572 | 36034 ft | 397 kts | 245° |
| 2026-05-01 09:55 | 42.80460 | 37.22674 | 36067 ft | 397 kts | 246° |
| 2026-05-01 09:55 | 42.78339 | 37.15736 | 36059 ft | 396 kts | 245° |
| 2026-05-01 09:56 | 42.76225 | 37.08820 | 36057 ft | 395 kts | 245° |
| 2026-05-01 09:56 | 42.74112 | 37.01919 | 36056 ft | 395 kts | 245° |
| 2026-05-01 09:57 | 42.71988 | 36.95039 | 36052 ft | 395 kts | 245° |
| 2026-05-01 09:57 | 42.69798 | 36.88202 | 36055 ft | 394 kts | 243° |
| 2026-05-01 09:58 | 42.67377 | 36.81519 | 36049 ft | 393 kts | 242° |
| 2026-05-01 09:58 | 42.64914 | 36.74927 | 36046 ft | 393 kts | 242° |
| 2026-05-01 09:59 | 42.62462 | 36.68279 | 36047 ft | 394 kts | 242° |
| 2026-05-01 09:59 | 42.60023 | 36.61620 | 36053 ft | 394 kts | 242° |
| 2026-05-01 10:00 | 42.57591 | 36.54950 | 36050 ft | 394 kts | 242° |
| 2026-05-01 10:00 | 42.55156 | 36.48286 | 36060 ft | 394 kts | 242° |
| 2026-05-01 10:01 | 42.52710 | 36.41630 | 36060 ft | 394 kts | 242° |
| 2026-05-01 10:01 | 42.50264 | 36.34980 | 36061 ft | 394 kts | 242° |
| 2026-05-01 10:02 | 42.47813 | 36.28339 | 36070 ft | 394 kts | 242° |
| 2026-05-01 10:02 | 42.45369 | 36.21740 | 36065 ft | 394 kts | 242° |
| 2026-05-01 10:03 | 42.42908 | 36.15117 | 36065 ft | 394 kts | 242° |
| 2026-05-01 10:03 | 42.40440 | 36.08483 | 36069 ft | 394 kts | 242° |
| 2026-05-01 10:04 | 42.37988 | 36.01910 | 36070 ft | 394 kts | 242° |
| 2026-05-01 10:04 | 42.35519 | 35.95283 | 36057 ft | 394 kts | 242° |
| 2026-05-01 10:05 | 42.33042 | 35.88670 | 36063 ft | 394 kts | 242° |
| 2026-05-01 10:05 | 42.30563 | 35.82057 | 36065 ft | 394 kts | 242° |
| 2026-05-01 10:06 | 42.28078 | 35.75443 | 36065 ft | 394 kts | 241° |
| 2026-05-01 10:06 | 42.25603 | 35.68888 | 36060 ft | 394 kts | 241° |
| 2026-05-01 10:07 | 42.23100 | 35.62279 | 36063 ft | 395 kts | 241° |
| 2026-05-01 10:07 | 42.20592 | 35.55658 | 36065 ft | 395 kts | 241° |
| 2026-05-01 10:08 | 42.16844 | 35.45797 | 36069 ft | 395 kts | 241° |
| 2026-05-01 10:09 | 42.14327 | 35.39189 | 36069 ft | 395 kts | 241° |
| 2026-05-01 10:09 | 42.11826 | 35.32589 | 36093 ft | 395 kts | 241° |
| 2026-05-01 10:10 | 42.09344 | 35.26034 | 36094 ft | 395 kts | 241° |
| 2026-05-01 10:10 | 42.05575 | 35.16156 | 36088 ft | 395 kts | 241° |
| 2026-05-01 10:11 | 42.03126 | 35.09536 | 36088 ft | 396 kts | 247° |
| 2026-05-01 10:11 | 42.02028 | 35.02246 | 36085 ft | 403 kts | 262° |
| 2026-05-01 10:12 | 42.01725 | 34.95977 | 36085 ft | 403 kts | 262° |
| 2026-05-01 10:13 | 42.01079 | 34.83464 | 36089 ft | 403 kts | 262° |
| 2026-05-01 10:13 | 42.00710 | 34.75923 | 36106 ft | 404 kts | 262° |
| 2026-05-01 10:14 | 42.00167 | 34.64635 | 36102 ft | 403 kts | 262° |
| 2026-05-01 10:14 | 41.99793 | 34.57100 | 36105 ft | 404 kts | 262° |
| 2026-05-01 10:15 | 41.99413 | 34.49565 | 36101 ft | 404 kts | 262° |
| 2026-05-01 10:15 | 41.99034 | 34.42087 | 36106 ft | 404 kts | 262° |
| 2026-05-01 10:16 | 41.98647 | 34.34554 | 36091 ft | 404 kts | 262° |
| 2026-05-01 10:17 | 41.98049 | 34.23256 | 36112 ft | 403 kts | 262° |
| 2026-05-01 10:17 | 41.97450 | 34.11986 | 36119 ft | 403 kts | 262° |
| 2026-05-01 10:18 | 41.96841 | 34.00727 | 36111 ft | 402 kts | 262° |
| 2026-05-01 10:19 | 41.96422 | 33.93239 | 36121 ft | 402 kts | 261° |
| 2026-05-01 10:19 | 41.96004 | 33.85797 | 36132 ft | 402 kts | 261° |
| 2026-05-01 10:20 | 41.95368 | 33.74549 | 36130 ft | 402 kts | 262° |
| 2026-05-01 10:20 | 41.95622 | 33.68275 | 36117 ft | 411 kts | 276° |
| 2026-05-01 10:21 | 41.97774 | 33.57049 | 36123 ft | 413 kts | 278° |
| 2026-05-01 10:22 | 41.99927 | 33.45817 | 36142 ft | 413 kts | 278° |
| 2026-05-01 10:23 | 42.02072 | 33.34554 | 36122 ft | 415 kts | 278° |
| 2026-05-01 10:23 | 42.04219 | 33.23276 | 36124 ft | 415 kts | 278° |
| 2026-05-01 10:24 | 42.07051 | 33.08263 | 36152 ft | 415 kts | 278° |
| 2026-05-01 10:25 | 42.10093 | 32.93248 | 36154 ft | 415 kts | 280° |
| 2026-05-01 10:26 | 42.11652 | 32.85755 | 36147 ft | 415 kts | 279° |
| 2026-05-01 10:27 | 42.14681 | 32.70788 | 36165 ft | 413 kts | 279° |
| 2026-05-01 10:28 | 42.16925 | 32.59643 | 36157 ft | 412 kts | 279° |
| 2026-05-01 10:28 | 42.19174 | 32.48441 | 36159 ft | 412 kts | 279° |
| 2026-05-01 10:29 | 42.21394 | 32.37233 | 36166 ft | 412 kts | 279° |
| 2026-05-01 10:30 | 42.24324 | 32.22381 | 36155 ft | 411 kts | 279° |
| 2026-05-01 10:31 | 42.27235 | 32.07471 | 36177 ft | 411 kts | 278° |
| 2026-05-01 10:32 | 42.29421 | 31.96289 | 36173 ft | 411 kts | 278° |
| 2026-05-01 10:33 | 42.32326 | 31.81363 | 36193 ft | 411 kts | 278° |
| 2026-05-01 10:34 | 42.34488 | 31.70146 | 36169 ft | 411 kts | 278° |
| 2026-05-01 10:34 | 42.35918 | 31.62660 | 36173 ft | 411 kts | 278° |
| 2026-05-01 10:35 | 42.38059 | 31.51472 | 36198 ft | 412 kts | 278° |
| 2026-05-01 10:35 | 42.39482 | 31.43965 | 36191 ft | 412 kts | 278° |
| 2026-05-01 10:36 | 42.41620 | 31.32691 | 36189 ft | 412 kts | 278° |
| 2026-05-01 10:37 | 42.43031 | 31.25160 | 36194 ft | 412 kts | 278° |
| 2026-05-01 10:37 | 42.45142 | 31.13854 | 36211 ft | 413 kts | 278° |
| 2026-05-01 10:38 | 42.46539 | 31.06351 | 36203 ft | 414 kts | 279° |
| 2026-05-01 10:38 | 42.47950 | 30.98789 | 36206 ft | 414 kts | 278° |
| 2026-05-01 10:39 | 42.49346 | 30.91215 | 36203 ft | 414 kts | 278° |
| 2026-05-01 10:39 | 42.50731 | 30.83635 | 36221 ft | 415 kts | 279° |
| 2026-05-01 10:40 | 42.52123 | 30.76040 | 36209 ft | 415 kts | 279° |
| 2026-05-01 10:40 | 42.53513 | 30.68425 | 36209 ft | 416 kts | 279° |
| 2026-05-01 10:41 | 42.54897 | 30.60811 | 36205 ft | 416 kts | 279° |
| 2026-05-01 10:42 | 42.56967 | 30.49367 | 36234 ft | 417 kts | 279° |
| 2026-05-01 10:42 | 42.58336 | 30.41710 | 36223 ft | 417 kts | 279° |
| 2026-05-01 10:43 | 42.59694 | 30.34099 | 36225 ft | 418 kts | 279° |
| 2026-05-01 10:43 | 42.61121 | 30.26434 | 36228 ft | 421 kts | 284° |
| 2026-05-01 10:44 | 42.63372 | 30.19039 | 36247 ft | 424 kts | 288° |
| 2026-05-01 10:44 | 42.65681 | 30.11664 | 36239 ft | 425 kts | 288° |
| 2026-05-01 10:45 | 42.67987 | 30.04272 | 36238 ft | 425 kts | 288° |
| 2026-05-01 10:45 | 42.70267 | 29.96913 | 36239 ft | 425 kts | 288° |
| 2026-05-01 10:46 | 42.72561 | 29.89486 | 36254 ft | 425 kts | 289° |
| 2026-05-01 10:46 | 42.74844 | 29.82050 | 36246 ft | 426 kts | 289° |
| 2026-05-01 10:47 | 42.77137 | 29.74609 | 36245 ft | 427 kts | 289° |
| 2026-05-01 10:47 | 42.79442 | 29.67153 | 36249 ft | 427 kts | 289° |
| 2026-05-01 10:48 | 42.81718 | 29.59713 | 36268 ft | 427 kts | 289° |
| 2026-05-01 10:48 | 42.83992 | 29.52229 | 36259 ft | 428 kts | 289° |
| 2026-05-01 10:49 | 42.86264 | 29.44722 | 36262 ft | 428 kts | 289° |
| 2026-05-01 10:49 | 42.88547 | 29.37207 | 36254 ft | 429 kts | 289° |
| 2026-05-01 10:50 | 42.90826 | 29.29690 | 36258 ft | 429 kts | 289° |
| 2026-05-01 10:50 | 42.93093 | 29.22163 | 36262 ft | 429 kts | 289° |
| 2026-05-01 10:51 | 42.95347 | 29.14668 | 36266 ft | 429 kts | 289° |
| 2026-05-01 10:51 | 42.97606 | 29.07124 | 36271 ft | 429 kts | 289° |
| 2026-05-01 10:52 | 42.99866 | 28.99561 | 36285 ft | 429 kts | 289° |
| 2026-05-01 10:52 | 43.02119 | 28.91999 | 36281 ft | 430 kts | 290° |
| 2026-05-01 10:53 | 43.04370 | 28.84430 | 36281 ft | 430 kts | 289° |
| 2026-05-01 10:53 | 43.07048 | 28.77105 | 36279 ft | 435 kts | 302° |
| 2026-05-01 10:54 | 43.10634 | 28.70429 | 36288 ft | 435 kts | 303° |
| 2026-05-01 10:54 | 43.14194 | 28.63786 | 36287 ft | 436 kts | 303° |
| 2026-05-01 10:55 | 43.17782 | 28.57070 | 36286 ft | 436 kts | 303° |
| 2026-05-01 10:55 | 43.21366 | 28.50354 | 36289 ft | 436 kts | 303° |
| 2026-05-01 10:56 | 43.24925 | 28.43666 | 36300 ft | 436 kts | 304° |
| 2026-05-01 10:56 | 43.28497 | 28.36941 | 36295 ft | 436 kts | 304° |
| 2026-05-01 10:57 | 43.32076 | 28.30190 | 36291 ft | 436 kts | 304° |
| 2026-05-01 10:57 | 43.35642 | 28.23440 | 36297 ft | 437 kts | 304° |
| 2026-05-01 10:58 | 43.39214 | 28.16674 | 36301 ft | 437 kts | 304° |
| 2026-05-01 10:58 | 43.42784 | 28.09896 | 36293 ft | 437 kts | 304° |
| 2026-05-01 10:59 | 43.46346 | 28.03110 | 36294 ft | 438 kts | 304° |
| 2026-05-01 10:59 | 43.49912 | 27.96312 | 36291 ft | 438 kts | 304° |
| 2026-05-01 11:00 | 43.53468 | 27.89503 | 36293 ft | 438 kts | 304° |
| 2026-05-01 11:00 | 43.57001 | 27.82723 | 36294 ft | 438 kts | 304° |
| 2026-05-01 11:01 | 43.60553 | 27.75893 | 36295 ft | 438 kts | 304° |
| 2026-05-01 11:01 | 43.64101 | 27.69059 | 36295 ft | 438 kts | 304° |
| 2026-05-01 11:02 | 43.67649 | 27.62211 | 36302 ft | 438 kts | 304° |
| 2026-05-01 11:02 | 43.71191 | 27.55354 | 36300 ft | 438 kts | 304° |
| 2026-05-01 11:03 | 43.74728 | 27.48478 | 36301 ft | 438 kts | 304° |
| 2026-05-01 11:03 | 43.78237 | 27.41643 | 36306 ft | 438 kts | 304° |
| 2026-05-01 11:04 | 43.81773 | 27.34757 | 36315 ft | 438 kts | 304° |
| 2026-05-01 11:04 | 43.85309 | 27.27861 | 36310 ft | 439 kts | 304° |
| 2026-05-01 11:05 | 43.88839 | 27.20964 | 36314 ft | 439 kts | 304° |
| 2026-05-01 11:05 | 43.92356 | 27.14043 | 36320 ft | 439 kts | 304° |
| 2026-05-01 11:06 | 43.95872 | 27.07116 | 36318 ft | 439 kts | 304° |
| 2026-05-01 11:06 | 43.99358 | 27.00223 | 36165 ft | 439 kts | 304° |
| 2026-05-01 11:07 | 44.02866 | 26.93292 | 35679 ft | 438 kts | 304° |
| 2026-05-01 11:07 | 44.04642 | 26.89847 | 35434 ft | 438 kts | 308° |
| 2026-05-01 11:07 | 44.06717 | 26.86748 | 35203 ft | 439 kts | 317° |
| 2026-05-01 11:07 | 44.08288 | 26.84980 | 35051 ft | 439 kts | 324° |
| 2026-05-01 11:08 | 44.10916 | 26.82794 | 34818 ft | 441 kts | 333° |
| 2026-05-01 11:08 | 44.13774 | 26.81247 | 34599 ft | 443 kts | 343° |
| 2026-05-01 11:08 | 44.19828 | 26.79475 | 34108 ft | 445 kts | 347° |
| 2026-05-01 11:09 | 44.22862 | 26.78645 | 33839 ft | 445 kts | 347° |
| 2026-05-01 11:09 | 44.25891 | 26.77799 | 33566 ft | 444 kts | 345° |
| 2026-05-01 11:09 | 44.28824 | 26.76489 | 33293 ft | 441 kts | 336° |
| 2026-05-01 11:10 | 44.34309 | 26.72683 | 32766 ft | 440 kts | 332° |
| 2026-05-01 11:10 | 44.37035 | 26.70745 | 32516 ft | 439 kts | 332° |
| 2026-05-01 11:10 | 44.39757 | 26.68817 | 31747 ft | 439 kts | 332° |
| 2026-05-01 11:10 | 44.42499 | 26.66878 | 30585 ft | 443 kts | 332° |
| 2026-05-01 11:11 | 44.45257 | 26.64928 | 29543 ft | 442 kts | 332° |
| 2026-05-01 11:11 | 44.47967 | 26.63012 | 28904 ft | 431 kts | 332° |
| 2026-05-01 11:11 | 44.50623 | 26.61130 | 28173 ft | 425 kts | 332° |
| 2026-05-01 11:11 | 44.53239 | 26.59271 | 27478 ft | 419 kts | 332° |
| 2026-05-01 11:12 | 44.55816 | 26.57434 | 26791 ft | 414 kts | 332° |
| 2026-05-01 11:12 | 44.58367 | 26.55613 | 26118 ft | 409 kts | 332° |
| 2026-05-01 11:12 | 44.60864 | 26.53833 | 25458 ft | 405 kts | 332° |
| 2026-05-01 11:12 | 44.63316 | 26.51939 | 24803 ft | 401 kts | 325° |
| 2026-05-01 11:13 | 44.65396 | 26.49375 | 24150 ft | 397 kts | 311° |
| 2026-05-01 11:13 | 44.66958 | 26.46198 | 23454 ft | 395 kts | 298° |
| 2026-05-01 11:13 | 44.67920 | 26.42593 | 22840 ft | 393 kts | 285° |
| 2026-05-01 11:13 | 44.68238 | 26.38794 | 22258 ft | 392 kts | 271° |
| 2026-05-01 11:14 | 44.68031 | 26.34995 | 21707 ft | 389 kts | 266° |
| 2026-05-01 11:14 | 44.67760 | 26.31228 | 21166 ft | 385 kts | 266° |
| 2026-05-01 11:14 | 44.67484 | 26.27539 | 20991 ft | 373 kts | 266° |
| 2026-05-01 11:14 | 44.67213 | 26.23987 | 20868 ft | 359 kts | 266° |
| 2026-05-01 11:15 | 44.66949 | 26.20554 | 20738 ft | 346 kts | 266° |
| 2026-05-01 11:15 | 44.66697 | 26.17250 | 20601 ft | 335 kts | 266° |
| 2026-05-01 11:15 | 44.66455 | 26.14049 | 20438 ft | 325 kts | 266° |
| 2026-05-01 11:15 | 44.66222 | 26.10920 | 20232 ft | 318 kts | 266° |
| 2026-05-01 11:16 | 44.65998 | 26.07911 | 20081 ft | 310 kts | 267° |
| 2026-05-01 11:16 | 44.65774 | 26.04919 | 19628 ft | 307 kts | 266° |
| 2026-05-01 11:16 | 44.65548 | 26.01940 | 19085 ft | 306 kts | 266° |
| 2026-05-01 11:16 | 44.65320 | 25.98975 | 18516 ft | 306 kts | 266° |
| 2026-05-01 11:17 | 44.65090 | 25.96005 | 18113 ft | 305 kts | 266° |
| 2026-05-01 11:17 | 44.64863 | 25.93048 | 17601 ft | 305 kts | 266° |
| 2026-05-01 11:17 | 44.64637 | 25.90107 | 17317 ft | 301 kts | 266° |
| 2026-05-01 11:17 | 44.64411 | 25.87185 | 16943 ft | 299 kts | 266° |
| 2026-05-01 11:18 | 44.64185 | 25.84290 | 16400 ft | 298 kts | 266° |
| 2026-05-01 11:18 | 44.63961 | 25.81404 | 15870 ft | 296 kts | 266° |
| 2026-05-01 11:18 | 44.63737 | 25.78526 | 15380 ft | 297 kts | 266° |
| 2026-05-01 11:18 | 44.63512 | 25.75659 | 14933 ft | 296 kts | 266° |
| 2026-05-01 11:19 | 44.63285 | 25.72793 | 14501 ft | 295 kts | 266° |
| 2026-05-01 11:19 | 44.63059 | 25.69929 | 14102 ft | 293 kts | 266° |
| 2026-05-01 11:19 | 44.62833 | 25.67072 | 13609 ft | 293 kts | 266° |
| 2026-05-01 11:19 | 44.62608 | 25.64257 | 13245 ft | 288 kts | 266° |
| 2026-05-01 11:20 | 44.62383 | 25.61456 | 12759 ft | 287 kts | 266° |
| 2026-05-01 11:20 | 44.62164 | 25.58723 | 12416 ft | 283 kts | 266° |
| 2026-05-01 11:20 | 44.61945 | 25.55991 | 11984 ft | 281 kts | 266° |
| 2026-05-01 11:20 | 44.61726 | 25.53284 | 11654 ft | 275 kts | 266° |
| 2026-05-01 11:21 | 44.61496 | 25.50668 | 11262 ft | 267 kts | 261° |
| 2026-05-01 11:21 | 44.60742 | 25.48324 | 10762 ft | 266 kts | 231° |
| 2026-05-01 11:21 | 44.59256 | 25.46829 | 10244 ft | 266 kts | 199° |
| 2026-05-01 11:21 | 44.57443 | 25.46566 | 9632 ft | 263 kts | 173° |
| 2026-05-01 11:22 | 44.55631 | 25.46853 | 9040 ft | 261 kts | 172° |
| 2026-05-01 11:22 | 44.53918 | 25.47507 | 8580 ft | 253 kts | 148° |
| 2026-05-01 11:22 | 44.52656 | 25.49140 | 8140 ft | 247 kts | 119° |
| 2026-05-01 11:22 | 44.52110 | 25.51374 | 7750 ft | 243 kts | 91° |
| 2026-05-01 11:23 | 44.52228 | 25.53714 | 7355 ft | 241 kts | 81° |
| 2026-05-01 11:23 | 44.52418 | 25.56062 | 6967 ft | 245 kts | 82° |
| 2026-05-01 11:23 | 44.52597 | 25.58384 | 6687 ft | 241 kts | 82° |
| 2026-05-01 11:23 | 44.52784 | 25.60737 | 6322 ft | 240 kts | 81° |
| 2026-05-01 11:24 | 44.52975 | 25.63098 | 6094 ft | 256 kts | 82° |
| 2026-05-01 11:24 | 44.53179 | 25.65631 | 5782 ft | 264 kts | 81° |
| 2026-05-01 11:24 | 44.53584 | 25.70721 | 5134 ft | 260 kts | 81° |
| 2026-05-01 11:25 | 44.53784 | 25.73236 | 4804 ft | 258 kts | 82° |
| 2026-05-01 11:25 | 44.54168 | 25.78091 | 4175 ft | 247 kts | 81° |
| 2026-05-01 11:25 | 44.54355 | 25.80461 | 3874 ft | 242 kts | 81° |
| 2026-05-01 11:26 | 44.54538 | 25.82795 | 3577 ft | 238 kts | 82° |
| 2026-05-01 11:26 | 44.54893 | 25.87319 | 3003 ft | 230 kts | 81° |
| 2026-05-01 11:26 | 44.55068 | 25.89559 | 2707 ft | 229 kts | 81° |
| 2026-05-01 11:27 | 44.55239 | 25.91760 | 2431 ft | 226 kts | 82° |
| 2026-05-01 11:27 | 44.55409 | 25.93947 | 2145 ft | 222 kts | 81° |
| 2026-05-01 11:27 | 44.55569 | 25.96032 | 1873 ft | 208 kts | 81° |
| 2026-05-01 11:27 | 44.55718 | 25.97957 | 1630 ft | 195 kts | 81° |
| 2026-05-01 11:28 | 44.55858 | 25.99783 | 1414 ft | 181 kts | 80° |
| 2026-05-01 11:28 | 44.55986 | 26.01450 | 1192 ft | 161 kts | 81° |
| 2026-05-01 11:28 | 44.56100 | 26.02939 | 970 ft | 145 kts | 79° |
| 2026-05-01 11:29 | 44.56306 | 26.05607 | 631 ft | 134 kts | 80° |
| 2026-05-01 11:29 | 44.56406 | 26.06912 | 466 ft | 134 kts | 81° |
| 2026-05-01 11:29 | 44.56588 | 26.09272 | 318 ft | 90 kts | 85° |
| 2026-05-01 11:30 | 44.56638 | 26.09929 | 322 ft | 53 kts | 84° |
| 2026-05-01 11:30 | 44.56670 | 26.10401 | 322 ft | 44 kts | 84° |
| 2026-05-01 11:30 | 44.56694 | 26.10686 | 321 ft | 19 kts | 80° |
| 2026-05-01 11:30 | 44.56778 | 26.10766 | 319 ft | 13 kts | 358° |
| 2026-05-01 11:31 | 44.56893 | 26.10748 | 321 ft | 20 kts | 353° |
| 2026-05-01 11:31 | 44.57009 | 26.10687 | 321 ft | 16 kts | 312° |
| 2026-05-01 11:31 | 44.57064 | 26.10535 | 320 ft | 19 kts | 284° |
| 2026-05-01 11:31 | 44.57059 | 26.10353 | 321 ft | 17 kts | 263° |
| 2026-05-01 11:32 | 44.57046 | 26.10193 | 321 ft | 16 kts | 263° |
| 2026-05-01 11:32 | 44.57034 | 26.10045 | 321 ft | 15 kts | 264° |
| 2026-05-01 11:32 | 44.57023 | 26.09908 | 321 ft | 14 kts | 263° |
| 2026-05-01 11:32 | 44.57013 | 26.09780 | 321 ft | 13 kts | 263° |
| 2026-05-01 11:33 | 44.57003 | 26.09661 | 320 ft | 12 kts | 264° |
| 2026-05-01 11:33 | 44.56995 | 26.09549 | 321 ft | 11 kts | 264° |
| 2026-05-01 11:33 | 44.56988 | 26.09446 | 321 ft | 10 kts | 264° |
| 2026-05-01 11:33 | 44.56980 | 26.09349 | 321 ft | 10 kts | 263° |
| 2026-05-01 11:34 | 44.56972 | 26.09250 | 321 ft | 13 kts | 263° |
| 2026-05-01 11:34 | 44.56962 | 26.09116 | 318 ft | 13 kts | 264° |
| 2026-05-01 11:34 | 44.56953 | 26.08991 | 321 ft | 12 kts | 264° |
| 2026-05-01 11:34 | 44.56943 | 26.08863 | 321 ft | 15 kts | 263° |
| 2026-05-01 11:35 | 44.56930 | 26.08701 | 321 ft | 16 kts | 263° |
| 2026-05-01 11:35 | 44.56943 | 26.08552 | 320 ft | 15 kts | 326° |
| 2026-05-01 11:35 | 44.57053 | 26.08529 | 321 ft | 17 kts | 356° |
| 2026-05-01 11:35 | 44.57171 | 26.08513 | 321 ft | 16 kts | 354° |
| 2026-05-01 11:36 | 44.57233 | 26.08424 | 321 ft | 16 kts | 266° |
| 2026-05-01 11:36 | 44.57212 | 26.08276 | 321 ft | 14 kts | 258° |
| 2026-05-01 11:36 | 44.57201 | 26.08159 | 321 ft | 12 kts | 264° |
| 2026-05-01 11:36 | 44.57194 | 26.08072 | 321 ft | 6 kts | 260° |
| 2026-05-01 11:37 | 44.57170 | 26.08052 | 321 ft | 4 kts | 184° |
| 2026-05-01 11:37 | 44.57148 | 26.08057 | 321 ft | 2 kts | 173° |
| 2026-05-01 11:37 | 44.57141 | 26.08058 | 321 ft | 0 kts | 173° |